createdAt,value
2024-04-09T00:01:46.168Z,36.64
2024-04-09T00:06:52.047Z,37.43
2024-04-09T00:12:00.388Z,36.04
2024-04-09T00:17:06.454Z,36.68
2024-04-09T00:22:11.686Z,38.02
2024-04-09T00:27:19.500Z,36.80
2024-04-09T00:32:24.766Z,35.64
2024-04-09T00:37:30.214Z,36.43
2024-04-09T00:42:38.165Z,36.49
2024-04-09T00:47:46.545Z,35.57
2024-04-09T00:52:56.366Z,34.24
2024-04-09T00:58:07.359Z,34.22
2024-04-09T01:03:13.204Z,33.72
2024-04-09T01:08:18.664Z,34.23
2024-04-09T01:13:26.501Z,33.74
2024-04-09T01:18:31.728Z,34.12
2024-04-09T01:23:40.428Z,34.51
2024-04-09T01:28:47.547Z,35.36
2024-04-09T01:33:53.628Z,37.19
2024-04-09T01:39:01.749Z,36.80
2024-04-09T01:44:07.951Z,37.49
2024-04-09T01:49:13.352Z,37.90
2024-04-09T01:54:21.234Z,37.18
2024-04-09T01:59:26.700Z,36.52
2024-04-09T02:04:32.053Z,36.41
2024-04-09T02:09:40.061Z,38.21
2024-04-09T02:14:45.297Z,38.45
2024-04-09T02:19:50.438Z,38.38
2024-04-09T02:24:58.302Z,37.70
2024-04-09T02:30:04.755Z,38.41
2024-04-09T02:35:13.249Z,38.19
2024-04-09T02:40:21.168Z,37.91
2024-04-09T02:45:27.362Z,38.47
2024-04-09T02:50:32.547Z,40.21
2024-04-09T02:55:40.430Z,38.37
2024-04-09T03:00:46.163Z,38.00
2024-04-09T03:05:51.856Z,38.80
2024-04-09T03:10:59.746Z,38.26
2024-04-09T03:16:04.986Z,38.24
2024-04-09T03:21:10.234Z,38.50
2024-04-09T03:26:18.393Z,37.29
2024-04-09T03:31:23.747Z,37.33
2024-04-09T03:36:28.865Z,39.01
2024-04-09T03:41:36.761Z,38.81
2024-04-09T03:46:42.288Z,39.75
2024-04-09T03:51:47.870Z,39.09
2024-04-09T03:56:56.027Z,38.52
2024-04-09T04:02:01.252Z,39.97
2024-04-09T04:07:06.419Z,41.04
2024-04-09T04:12:14.373Z,40.72
2024-04-09T04:17:19.659Z,41.85
2024-04-09T04:22:24.980Z,41.17
2024-04-09T04:27:32.816Z,41.36
2024-04-09T04:32:38.069Z,42.11
2024-04-09T04:37:43.234Z,42.00
2024-04-09T04:42:51.055Z,42.05
2024-04-09T04:47:56.436Z,43.39
2024-04-09T04:53:02.415Z,44.29
2024-04-09T04:58:10.610Z,43.65
2024-04-09T05:03:16.016Z,45.25
2024-04-09T05:08:21.685Z,45.41
2024-04-09T05:13:29.660Z,45.63
2024-04-09T05:18:35.047Z,46.05
2024-04-09T05:23:40.269Z,46.00
2024-04-09T05:28:48.091Z,45.94
2024-04-09T05:33:53.308Z,46.61
2024-04-09T05:38:58.489Z,47.78
2024-04-09T05:44:06.691Z,47.17
2024-04-09T05:49:12.085Z,47.66
2024-04-09T05:54:21.225Z,48.68
2024-04-09T05:59:31.533Z,48.82
2024-04-09T06:04:36.751Z,49.18
2024-04-09T06:09:42.805Z,50.02
2024-04-09T06:14:50.695Z,49.93
2024-04-09T06:19:58.702Z,50.07
2024-04-09T06:25:04.468Z,50.41
2024-04-09T06:30:14.164Z,50.89
2024-04-09T06:35:20.251Z,50.88
2024-04-09T06:40:25.593Z,50.76
2024-04-09T06:45:33.822Z,51.13
2024-04-09T06:50:39.154Z,52.12
2024-04-09T06:55:45.319Z,53.45
2024-04-09T07:00:54.265Z,52.23
2024-04-09T07:05:59.435Z,53.62
2024-04-09T07:11:05.612Z,53.88
2024-04-09T07:16:13.725Z,54.20
2024-04-09T07:21:19.122Z,55.67
2024-04-09T07:26:24.345Z,55.57
2024-04-09T07:31:32.416Z,54.92
2024-04-09T07:36:38.879Z,57.19
2024-04-09T07:41:44.272Z,57.29
2024-04-09T07:46:53.448Z,54.20
2024-04-09T07:51:58.802Z,54.83
2024-04-09T07:57:05.263Z,55.04
2024-04-09T08:02:13.330Z,53.13
2024-04-09T08:07:18.801Z,52.67
2024-04-09T08:12:25.305Z,54.12
2024-04-09T08:17:33.425Z,53.51
2024-04-09T08:22:38.830Z,53.38
2024-04-09T08:27:44.123Z,52.83
2024-04-09T08:32:53.191Z,52.05
2024-04-09T08:37:59.080Z,53.68
2024-04-09T08:43:04.686Z,53.80
2024-04-09T08:48:15.632Z,55.39
2024-04-09T08:53:21.851Z,57.62
2024-04-09T08:58:27.293Z,56.19
2024-04-09T09:03:35.498Z,55.05
2024-04-09T09:08:44.775Z,54.61
2024-04-09T09:13:50.159Z,55.53
2024-04-09T09:19:09.514Z,55.24
2024-04-09T09:24:14.760Z,56.09
2024-04-09T09:29:20.015Z,55.25
2024-04-09T09:34:36.123Z,55.48
2024-04-09T09:39:47.344Z,55.29
2024-04-09T09:44:54.391Z,54.50
2024-04-09T09:50:10.912Z,54.13
2024-04-09T09:55:23.269Z,56.76
2024-04-09T10:00:30.418Z,57.11
2024-04-09T10:05:38.824Z,57.78
2024-04-09T10:10:46.339Z,58.07
2024-04-09T10:15:51.993Z,58.69
2024-04-09T10:20:59.851Z,59.26
2024-04-09T10:26:07.137Z,58.29
2024-04-09T10:31:14.777Z,57.00
2024-04-09T10:36:23.604Z,58.23
2024-04-09T10:41:29.167Z,57.05
2024-04-09T10:46:34.358Z,58.48
2024-04-09T10:51:42.226Z,58.68
2024-04-09T10:56:47.540Z,57.38
2024-04-09T11:01:53.969Z,58.77
2024-04-09T11:07:02.170Z,58.52
2024-04-09T11:12:08.870Z,58.08
2024-04-09T11:17:19.873Z,57.64
2024-04-09T11:22:27.628Z,57.71
2024-04-09T11:27:33.079Z,57.17
2024-04-09T11:32:39.314Z,56.89
2024-04-09T11:37:53.092Z,55.17
2024-04-09T11:43:00.156Z,55.09
2024-04-09T11:48:06.264Z,55.65
2024-04-09T11:53:20.081Z,56.54
2024-04-09T11:58:26.185Z,57.02
2024-04-09T12:03:31.760Z,55.79
2024-04-09T12:08:39.565Z,54.53
2024-04-09T12:13:44.694Z,55.39
2024-04-09T12:18:50.141Z,56.13
2024-04-09T12:23:58.015Z,54.26
2024-04-09T12:29:03.451Z,55.40
2024-04-09T12:34:08.912Z,54.87
2024-04-09T12:39:17.098Z,52.68
2024-04-09T12:44:22.306Z,52.14
2024-04-09T12:49:38.160Z,52.21
2024-04-09T12:54:52.134Z,51.71
2024-04-09T13:00:13.433Z,50.80
2024-04-09T13:05:24.170Z,51.16
2024-04-09T13:10:34.279Z,52.17
2024-04-09T13:20:47.700Z,50.03
2024-04-09T13:25:56.119Z,50.21
2024-04-09T13:31:01.469Z,47.91
2024-04-09T13:36:07.265Z,50.28
2024-04-09T13:41:15.027Z,49.87
2024-04-09T13:46:20.895Z,47.70
2024-04-09T13:51:26.157Z,48.63
2024-04-09T13:56:33.897Z,48.44
2024-04-09T14:01:39.398Z,47.20
2024-04-09T14:06:44.625Z,47.27
2024-04-09T14:11:52.566Z,48.07
2024-04-09T14:16:57.885Z,48.29
2024-04-09T14:22:04.270Z,48.06
2024-04-09T14:27:12.559Z,47.46
2024-04-09T14:32:18.329Z,47.26
2024-04-09T14:37:24.989Z,47.12
2024-04-09T14:42:32.753Z,46.93
2024-04-09T14:47:38.091Z,47.02
2024-04-09T14:52:43.762Z,46.95
2024-04-09T14:57:51.559Z,47.59
2024-04-09T15:02:56.716Z,47.63
2024-04-09T15:08:02.064Z,46.50
2024-04-09T15:13:11.421Z,46.82
2024-04-09T15:18:16.814Z,44.84
2024-04-09T15:23:22.350Z,44.81
2024-04-09T15:28:30.229Z,45.94
2024-04-09T15:33:35.489Z,44.61
2024-04-09T15:38:41.312Z,45.43
2024-04-09T15:43:50.637Z,46.14
2024-04-09T15:48:56.204Z,44.77
2024-04-09T15:54:01.998Z,44.09
2024-04-09T15:59:10.000Z,44.72
2024-04-09T16:04:15.667Z,44.50
2024-04-09T16:09:21.533Z,43.91
2024-04-09T16:14:29.850Z,44.64
2024-04-09T16:19:35.287Z,44.26
2024-04-09T16:24:40.432Z,44.39
2024-04-09T16:29:48.343Z,44.79
2024-04-09T16:34:53.608Z,45.36
2024-04-09T16:39:58.797Z,45.88
2024-04-09T16:45:07.260Z,45.85
2024-04-09T16:50:13.850Z,47.21
2024-04-09T16:55:19.328Z,45.91
2024-04-09T17:00:27.095Z,46.89
2024-04-09T17:05:32.660Z,46.48
2024-04-09T17:10:37.889Z,46.08
2024-04-09T17:15:45.973Z,46.17
2024-04-09T17:20:51.588Z,46.30
2024-04-09T17:26:03.409Z,45.77
2024-04-09T17:31:11.355Z,46.53
2024-04-09T17:36:16.600Z,46.40
2024-04-09T17:41:21.899Z,47.39
2024-04-09T17:46:29.906Z,48.40
2024-04-09T17:51:35.275Z,48.25
2024-04-09T17:56:41.549Z,48.74
2024-04-09T18:01:49.485Z,48.01
2024-04-09T18:06:55.919Z,48.80
2024-04-09T18:12:01.544Z,48.29
2024-04-09T18:17:10.112Z,48.45
2024-04-09T18:22:15.439Z,49.54
2024-04-09T18:27:20.854Z,48.40
2024-04-09T18:32:31.639Z,49.22
2024-04-09T18:37:39.420Z,49.34
2024-04-09T18:42:44.716Z,49.01
2024-04-09T18:47:52.814Z,49.26
2024-04-09T18:52:58.103Z,49.63
2024-04-09T18:58:04.111Z,49.75
2024-04-09T19:03:12.644Z,49.86
2024-04-09T19:08:18.010Z,50.94
2024-04-09T19:13:23.319Z,50.44
2024-04-09T19:18:31.446Z,50.53
2024-04-09T19:23:37.072Z,50.70
2024-04-09T19:28:42.618Z,50.85
2024-04-09T19:33:50.796Z,50.33
2024-04-09T19:38:56.450Z,50.52
2024-04-09T19:44:09.898Z,50.31
2024-04-09T19:49:26.402Z,50.74
2024-04-09T19:54:31.723Z,51.17
2024-04-09T19:59:39.581Z,51.24
2024-04-09T20:04:47.757Z,51.39
2024-04-09T20:09:53.091Z,51.78
2024-04-09T20:14:58.248Z,51.02
2024-04-09T20:20:07.710Z,51.50
2024-04-09T20:25:12.938Z,51.42
2024-04-09T20:30:18.280Z,51.55
2024-04-09T20:35:36.190Z,51.38
2024-04-09T20:40:58.101Z,50.19
2024-04-09T20:46:04.213Z,51.51
2024-04-09T20:51:12.011Z,51.13
2024-04-09T20:56:17.515Z,51.61
2024-04-09T21:01:23.152Z,52.69
2024-04-09T21:06:30.976Z,52.03
2024-04-09T21:11:36.762Z,52.65
2024-04-09T21:16:42.147Z,52.84
2024-04-09T21:21:50.024Z,52.95
2024-04-09T21:26:55.453Z,53.14
2024-04-09T21:32:00.631Z,53.95
2024-04-09T21:37:08.546Z,54.21
2024-04-09T21:42:13.687Z,55.17
2024-04-09T21:47:19.132Z,54.80
2024-04-09T21:52:28.715Z,55.26
2024-04-09T21:57:34.091Z,55.36
2024-04-09T22:02:39.574Z,56.35
2024-04-09T22:07:47.984Z,56.42
2024-04-09T22:13:01.637Z,56.60
2024-04-09T22:18:07.508Z,57.18
2024-04-09T22:23:16.782Z,56.58
2024-04-09T22:28:22.174Z,56.48
2024-04-09T22:33:27.990Z,56.65
2024-04-09T22:38:35.981Z,56.43
2024-04-09T22:43:41.261Z,56.52
2024-04-09T22:48:47.877Z,56.17
2024-04-09T22:53:58.395Z,55.93
2024-04-09T22:59:03.583Z,56.63
2024-04-09T23:04:08.819Z,56.83
2024-04-09T23:09:20.679Z,57.17
2024-04-09T23:14:25.928Z,56.99
2024-04-09T23:19:31.272Z,57.43
2024-04-09T23:24:39.067Z,57.30
2024-04-09T23:29:44.431Z,57.40
2024-04-09T23:34:49.567Z,57.90
2024-04-09T23:39:57.424Z,57.68
2024-04-09T23:45:03.121Z,57.00
2024-04-09T23:50:08.780Z,57.65
2024-04-09T23:55:16.910Z,57.60
